Time;durP1;ratioP1;P1;durP2;ratioP2;P2;SDS_P1;SDS_P2;PMS_P1;PMS_P2;Temp;Humidity;BMP_temperature;BMP_pressure;BME280_temperature;BME280_humidity;BME280_pressure;Samples;Min_cycle;Max_cycle;Signal;HPM_P1;HPM_P2
2024/04/05 00:00:13;;;;;;;;;;;;;;;2.70;100.00;100978.59;106322;1254;61980;-83
2024/04/05 00:02:45;;;;;;;;;;;;;;;2.65;100.00;100974.72;106576;1256;75489;-82
2024/04/05 00:05:12;;;;;;;;;;;;;;;2.58;100.00;100979.39;107428;1252;67995;-85
2024/04/05 00:07:40;;;;;;;;;;;;;;;2.51;100.00;100980.50;106352;1257;72722;-83
2024/04/05 00:10:08;;;;;;;;;;;;;;;2.44;100.00;100981.44;106243;1259;62042;-82
2024/04/05 00:12:35;;;;;;;;;;;;;;;2.40;100.00;100979.79;106603;1254;62113;-82
2024/04/05 00:15:09;;;;;;;;;;;;;;;2.36;100.00;100981.16;106348;1257;75527;-82
2024/04/05 00:17:37;;;;;;;;;;;;;;;2.32;100.00;100982.78;106332;1254;67596;-85
2024/04/05 00:20:04;;;;;;;;;;;;;;;2.26;100.00;100986.30;106505;1254;71745;-85
2024/04/05 00:22:32;;;;;;;;;;;;;;;2.20;100.00;100984.19;106412;1253;62152;-85
2024/04/05 00:24:59;;;;;;;;;;;;;;;2.13;100.00;100982.64;106349;1254;62664;-82
2024/04/05 00:27:27;;;;;;;;;;;;;;;2.08;100.00;100980.70;106393;1256;75547;-82
2024/04/05 00:29:54;;;;;;;;;;;;;;;2.05;100.00;100979.88;106775;1254;68837;-85
2024/04/05 00:32:22;;;;;;;;;;;;;;;2.01;100.00;100983.98;107174;1254;72785;-85
2024/04/05 00:34:49;;;;;;;;;;;;;;;1.97;100.00;100981.84;106377;1253;62155;-82
2024/04/05 00:37:17;;;;;;;;;;;;;;;1.92;100.00;100979.92;106355;1253;62060;-82
2024/04/05 00:39:44;;;;;;;;;;;;;;;1.88;100.00;100982.13;106583;1254;75538;-85
2024/04/05 00:42:12;;;;;;;;;;;;;;;1.84;100.00;100988.31;106360;1256;67566;-84
2024/04/05 00:44:39;;;;;;;;;;;;;;;1.81;100.00;100982.80;106403;1254;72498;-84
2024/04/05 00:47:06;;;;;;;;;;;;;;;1.76;100.00;100983.14;106351;1254;62084;-82
2024/04/05 00:49:34;;;;;;;;;;;;;;;1.70;100.00;100984.09;106419;1254;62123;-85
2024/04/05 00:52:03;;;;;;;;;;;;;;;1.65;100.00;100980.52;106525;1254;75513;-84
2024/04/05 00:54:30;;;;;;;;;;;;;;;1.60;100.00;100979.66;106434;1254;69013;-82
2024/04/05 00:56:58;;;;;;;;;;;;;;;1.56;100.00;100980.23;106082;1257;209322;-82
2024/04/05 00:59:26;;;;;;;;;;;;;;;1.52;100.00;100980.78;106449;1254;62028;-85
2024/04/05 01:01:53;;;;;;;;;;;;;;;1.47;100.00;100980.32;107561;1253;62152;-85
2024/04/05 01:04:22;;;;;;;;;;;;;;;1.41;100.00;100981.69;106327;1253;75501;-85
2024/04/05 01:06:50;;;;;;;;;;;;;;;1.36;100.00;100982.21;106484;1254;68574;-82
2024/04/05 01:09:18;;;;;;;;;;;;;;;1.32;100.00;100988.71;106591;1257;71462;-83
2024/04/05 01:11:55;;;;;;;;;;;;;;;1.26;100.00;100986.13;106448;1253;62047;-84
2024/04/05 01:14:22;;;;;;;;;;;;;;;1.21;100.00;100989.39;106316;1254;61168;-82
2024/04/05 01:16:50;;;;;;;;;;;;;;;1.14;100.00;100991.16;106379;1253;75471;-82
2024/04/05 01:19:19;;;;;;;;;;;;;;;1.11;100.00;100989.52;106422;1259;68557;-85
2024/04/05 01:21:49;;;;;;;;;;;;;;;1.07;100.00;100990.16;106587;1256;72710;-84
2024/04/05 01:24:16;;;;;;;;;;;;;;;1.05;100.00;100992.64;106302;1254;62033;-84
2024/04/05 01:26:43;;;;;;;;;;;;;;;1.00;100.00;100998.25;106229;1256;62031;-83
2024/04/05 01:29:11;;;;;;;;;;;;;;;0.95;100.00;100999.35;106613;1254;73813;-86
2024/04/05 01:31:38;;;;;;;;;;;;;;;0.89;100.00;101001.54;106392;1252;67320;-82
2024/04/05 01:34:06;;;;;;;;;;;;;;;0.85;100.00;101006.89;106157;1254;72781;-82
2024/04/05 01:36:33;;;;;;;;;;;;;;;0.80;100.00;101012.85;107791;1254;62056;-83
2024/04/05 01:39:01;;;;;;;;;;;;;;;0.76;100.00;101015.35;107918;1256;60079;-83
2024/04/05 01:41:28;;;;;;;;;;;;;;;0.73;100.00;101014.92;106480;1252;75421;-85
2024/04/05 01:43:56;;;;;;;;;;;;;;;0.69;100.00;101014.70;106388;1254;67719;-82
2024/04/05 01:46:23;;;;;;;;;;;;;;;0.66;100.00;101016.18;106258;1254;72525;-86
2024/04/05 01:48:51;;;;;;;;;;;;;;;0.63;100.00;101017.33;106405;1254;62149;-85
2024/04/05 01:51:18;;;;;;;;;;;;;;;0.58;100.00;101019.50;106290;1254;62021;-84
2024/04/05 01:53:46;;;;;;;;;;;;;;;0.55;100.00;101018.20;106310;1259;75555;-85
2024/04/05 01:56:13;;;;;;;;;;;;;;;0.51;100.00;101024.25;106272;1258;67273;-83
2024/04/05 01:58:42;;;;;;;;;;;;;;;0.48;100.00;101023.09;106329;1254;72712;-84
2024/04/05 02:01:09;;;;;;;;;;;;;;;0.45;100.00;101028.29;107541;1255;62129;-84
2024/04/05 02:03:37;;;;;;;;;;;;;;;0.41;100.00;101028.30;106401;1257;61970;-82
2024/04/05 02:06:13;;;;;;;;;;;;;;;0.39;100.00;101031.52;106512;1260;75842;-84
2024/04/05 02:08:41;;;;;;;;;;;;;;;0.36;100.00;101033.16;106329;1254;68586;-82
2024/04/05 02:11:08;;;;;;;;;;;;;;;0.32;100.00;101031.86;106224;1254;72995;-85
2024/04/05 02:13:39;;;;;;;;;;;;;;;0.29;100.00;101029.23;106295;1257;62157;-82
2024/04/05 02:16:06;;;;;;;;;;;;;;;0.25;100.00;101029.20;106399;1254;62141;-84
2024/04/05 02:18:34;;;;;;;;;;;;;;;0.21;100.00;101026.66;106348;1259;75493;-82
2024/04/05 02:21:01;;;;;;;;;;;;;;;0.18;100.00;101031.34;106308;1254;68516;-82
2024/04/05 02:23:29;;;;;;;;;;;;;;;0.15;100.00;101031.04;106570;1255;71560;-85
2024/04/05 02:25:56;;;;;;;;;;;;;;;0.12;100.00;101034.95;106312;1254;62235;-85
2024/04/05 02:28:23;;;;;;;;;;;;;;;0.09;100.00;101040.63;106534;1253;62293;-84
2024/04/05 02:30:51;;;;;;;;;;;;;;;0.05;100.00;101040.67;106534;1254;75663;-83
2024/04/05 02:33:18;;;;;;;;;;;;;;;0.03;100.00;101038.52;106398;1254;68643;-84
2024/04/05 02:35:46;;;;;;;;;;;;;;;-0.01;100.00;101039.69;106303;1257;72510;-84
2024/04/05 02:38:14;;;;;;;;;;;;;;;-0.04;100.00;101043.06;106369;1254;62418;-82
2024/04/05 02:40:50;;;;;;;;;;;;;;;-0.07;100.00;101043.40;106196;1254;62165;-83
2024/04/05 02:43:18;;;;;;;;;;;;;;;-0.11;100.00;101046.73;106413;1254;75636;-84
2024/04/05 02:45:45;;;;;;;;;;;;;;;-0.16;100.00;101048.17;106310;1254;69121;-82
2024/04/05 02:48:13;;;;;;;;;;;;;;;-0.19;100.00;101040.66;107609;1254;71125;-85
2024/04/05 02:50:40;;;;;;;;;;;;;;;-0.22;100.00;101044.07;106283;1259;61969;-85
2024/04/05 02:53:08;;;;;;;;;;;;;;;-0.25;100.00;101044.70;106432;1258;60504;-84
2024/04/05 02:55:35;;;;;;;;;;;;;;;-0.28;100.00;101050.96;106555;1256;75531;-85
2024/04/05 02:58:03;;;;;;;;;;;;;;;-0.31;100.00;101057.66;106248;1253;68602;-84
2024/04/05 03:00:30;;;;;;;;;;;;;;;-0.33;100.00;101060.08;106431;1253;72428;-86
2024/04/05 03:02:58;;;;;;;;;;;;;;;-0.34;100.00;101062.92;106294;1262;62117;-84
2024/04/05 03:05:26;;;;;;;;;;;;;;;-0.37;100.00;101059.40;106335;1254;60291;-85
2024/04/05 03:07:53;;;;;;;;;;;;;;;-0.36;100.00;101061.92;106303;1259;75473;-85
2024/04/05 03:10:21;;;;;;;;;;;;;;;-0.37;100.00;101066.85;106407;1254;69141;-82
2024/04/05 03:12:51;;;;;;;;;;;;;;;-0.39;100.00;101065.41;106550;1254;71496;-86
2024/04/05 03:15:19;;;;;;;;;;;;;;;-0.42;100.00;101067.06;107633;1254;62221;-85
2024/04/05 03:17:46;;;;;;;;;;;;;;;-0.44;100.00;101064.91;106525;1254;62627;-85
2024/04/05 03:20:14;;;;;;;;;;;;;;;-0.44;100.00;101066.59;107968;1254;75711;-86
2024/04/05 03:22:41;;;;;;;;;;;;;;;-0.46;100.00;101068.73;106453;1254;68955;-84
2024/04/05 03:25:09;;;;;;;;;;;;;;;-0.49;100.00;101072.21;106097;1254;73279;-86
2024/04/05 03:27:36;;;;;;;;;;;;;;;-0.51;100.00;101074.98;106430;1259;62001;-85
2024/04/05 03:30:04;;;;;;;;;;;;;;;-0.52;100.00;101075.98;106396;1254;62123;-84
2024/04/05 03:32:35;;;;;;;;;;;;;;;-0.52;100.00;101079.40;106441;1254;74275;-83
2024/04/05 03:35:05;;;;;;;;;;;;;;;-0.50;100.00;101082.56;106568;1254;68683;-83
2024/04/05 03:37:33;;;;;;;;;;;;;;;-0.49;100.00;101085.43;106397;1253;72793;-83
2024/04/05 03:40:00;;;;;;;;;;;;;;;-0.46;100.00;101086.69;106497;1256;62038;-85
2024/04/05 03:42:28;;;;;;;;;;;;;;;-0.42;100.00;101091.04;106426;1253;62077;-84
2024/04/05 03:44:55;;;;;;;;;;;;;;;-0.38;100.00;101097.52;106232;1259;75472;-84
2024/04/05 03:47:23;;;;;;;;;;;;;;;-0.34;100.00;101099.58;106361;1259;68607;-84
2024/04/05 03:49:51;;;;;;;;;;;;;;;-0.30;100.00;101107.10;106450;1254;72663;-85
2024/04/05 03:52:18;;;;;;;;;;;;;;;-0.23;100.00;101115.95;106241;1254;62093;-84
2024/04/05 03:54:46;;;;;;;;;;;;;;;-0.16;100.00;101114.87;106349;1254;62047;-85
2024/04/05 03:57:13;;;;;;;;;;;;;;;-0.10;100.00;101111.61;106353;1254;74208;-86
2024/04/05 03:59:40;;;;;;;;;;;;;;;-0.05;100.00;101112.90;106405;1259;67697;-86
2024/04/05 04:02:08;;;;;;;;;;;;;;;0.03;100.00;101115.33;106270;1259;71190;-85
2024/04/05 04:04:36;;;;;;;;;;;;;;;0.11;100.00;101116.64;106853;1259;62146;-85
2024/04/05 04:07:03;;;;;;;;;;;;;;;0.17;100.00;101113.95;106561;1254;62139;-86
2024/04/05 04:09:32;;;;;;;;;;;;;;;0.25;100.00;101113.27;106421;1256;76438;-85
2024/04/05 04:12:00;;;;;;;;;;;;;;;0.35;100.00;101113.98;106221;1254;68275;-84
2024/04/05 04:14:29;;;;;;;;;;;;;;;0.45;100.00;101115.65;106446;1254;71873;-83
2024/04/05 04:16:56;;;;;;;;;;;;;;;0.57;100.00;101115.37;106541;1254;61983;-84
2024/04/05 04:19:23;;;;;;;;;;;;;;;0.70;100.00;101111.96;106630;1254;62249;-86
2024/04/05 04:21:51;;;;;;;;;;;;;;;0.81;100.00;101117.90;106478;1254;74551;-85
2024/04/05 04:24:19;;;;;;;;;;;;;;;0.93;100.00;101118.63;106407;1254;68827;-85
2024/04/05 04:26:46;;;;;;;;;;;;;;;1.05;100.00;101117.44;106351;1259;71438;-86
2024/04/05 04:29:14;;;;;;;;;;;;;;;1.18;100.00;101122.21;106422;1259;62065;-86
2024/04/05 04:31:42;;;;;;;;;;;;;;;1.32;100.00;101123.77;106455;1260;61974;-86
2024/04/05 04:34:10;;;;;;;;;;;;;;;1.45;100.00;101132.71;106210;1260;75544;-85
2024/04/05 04:36:37;;;;;;;;;;;;;;;1.59;100.00;101129.11;106289;1253;68628;-85
2024/04/05 04:39:08;;;;;;;;;;;;;;;1.75;100.00;101138.77;107039;1259;72653;-85
2024/04/05 04:41:36;;;;;;;;;;;;;;;1.93;100.00;101134.44;106201;1258;62204;-86
2024/04/05 04:44:03;;;;;;;;;;;;;;;2.09;100.00;101143.70;106351;1254;62203;-86
2024/04/05 04:46:32;;;;;;;;;;;;;;;2.27;100.00;101143.45;106366;1254;73920;-85
2024/04/05 04:49:00;;;;;;;;;;;;;;;2.45;100.00;101146.44;106287;1259;67613;-85
2024/04/05 04:51:27;;;;;;;;;;;;;;;2.62;100.00;101149.66;106057;1259;72526;-85
2024/04/05 04:53:55;;;;;;;;;;;;;;;2.81;100.00;101143.30;106258;1255;62080;-85
2024/04/05 04:56:22;;;;;;;;;;;;;;;3.01;100.00;101139.11;106162;1260;62000;-85
2024/04/05 04:58:50;;;;;;;;;;;;;;;3.20;100.00;101139.05;106334;1257;75532;-86
2024/04/05 05:01:17;;;;;;;;;;;;;;;3.38;100.00;101141.88;106144;1253;68651;-86
2024/04/05 05:03:45;;;;;;;;;;;;;;;3.56;100.00;101136.30;106503;1256;72812;-86
2024/04/05 05:06:12;;;;;;;;;;;;;;;3.72;100.00;101140.87;108379;1258;62149;-86
2024/04/05 05:08:40;;;;;;;;;;;;;;;3.92;100.00;101143.11;107912;1254;59958;-87
2024/04/05 05:11:09;;;;;;;;;;;;;;;4.13;100.00;101141.22;106642;1259;74285;-86
2024/04/05 05:13:36;;;;;;;;;;;;;;;4.37;100.00;101142.49;106376;1260;67389;-86
2024/04/05 05:16:04;;;;;;;;;;;;;;;4.60;100.00;101141.70;106516;1256;72378;-86
2024/04/05 05:18:31;;;;;;;;;;;;;;;4.83;100.00;101146.21;106374;1260;61993;-86
2024/04/05 05:20:59;;;;;;;;;;;;;;;5.08;100.00;101143.75;106241;1254;61918;-87
2024/04/05 05:23:26;;;;;;;;;;;;;;;5.31;100.00;101144.42;106473;1254;75445;-86
2024/04/05 05:25:55;;;;;;;;;;;;;;;5.55;100.00;101143.45;106500;1254;68538;-84
2024/04/05 05:28:24;;;;;;;;;;;;;;;5.81;100.00;101143.80;106430;1254;72581;-85
2024/04/05 05:30:51;;;;;;;;;;;;;;;6.10;100.00;101143.02;106319;1258;62546;-85
2024/04/05 05:33:19;;;;;;;;;;;;;;;6.34;100.00;101144.67;106429;1253;62066;-85
2024/04/05 05:35:46;;;;;;;;;;;;;;;6.60;100.00;101148.86;106281;1255;74222;-84
2024/04/05 05:38:14;;;;;;;;;;;;;;;6.79;100.00;101149.24;106737;1257;68578;-86
2024/04/05 05:40:41;;;;;;;;;;;;;;;6.95;100.00;101149.00;106365;1258;71125;-86
2024/04/05 05:43:09;;;;;;;;;;;;;;;7.10;100.00;101154.42;106332;1259;62165;-85
2024/04/05 05:45:36;;;;;;;;;;;;;;;7.23;100.00;101150.65;106304;1255;62086;-86
2024/04/05 05:48:08;;;;;;;;;;;;;;;7.36;100.00;101151.08;106326;1254;75567;-86
2024/04/05 05:50:35;;;;;;;;;;;;;;;7.45;100.00;101149.58;106343;1259;68451;-86
2024/04/05 05:53:03;;;;;;;;;;;;;;;7.58;100.00;101151.73;106241;1257;72770;-86
2024/04/05 05:55:31;;;;;;;;;;;;;;;7.73;100.00;101152.06;106103;1254;62104;-86
2024/04/05 05:57:58;;;;;;;;;;;;;;;7.86;100.00;101146.14;106848;1259;61998;-86
2024/04/05 06:00:25;;;;;;;;;;;;;;;7.94;100.00;101147.00;106254;1256;74209;-86
2024/04/05 06:02:53;;;;;;;;;;;;;;;8.03;100.00;101152.23;106265;1254;68597;-87
2024/04/05 06:05:23;;;;;;;;;;;;;;;8.17;100.00;101157.38;106269;1257;74911;-86
2024/04/05 06:07:51;;;;;;;;;;;;;;;8.36;100.00;101162.17;106403;1254;62204;-86
2024/04/05 06:10:19;;;;;;;;;;;;;;;8.56;100.00;101165.67;106451;1255;61976;-85
2024/04/05 06:12:46;;;;;;;;;;;;;;;8.75;100.00;101163.06;106252;1260;77647;-86
2024/04/05 06:15:14;;;;;;;;;;;;;;;8.87;100.00;101166.56;106183;1255;69647;-85
2024/04/05 06:17:45;;;;;;;;;;;;;;;8.99;100.00;101166.64;106219;1257;73164;-85
2024/04/05 06:20:15;;;;;;;;;;;;;;;9.14;100.00;101169.98;106141;1255;62070;-84
2024/04/05 06:22:42;;;;;;;;;;;;;;;9.22;100.00;101172.52;106127;1259;62042;-86
2024/04/05 06:25:10;;;;;;;;;;;;;;;9.34;100.00;101175.55;106278;1253;77577;-84
2024/04/05 06:27:37;;;;;;;;;;;;;;;9.53;100.00;101178.95;106260;1258;68992;-85
2024/04/05 06:30:08;;;;;;;;;;;;;;;9.65;100.00;101177.73;107427;1254;71146;-86
2024/04/05 06:32:35;;;;;;;;;;;;;;;9.65;97.87;101180.30;106947;1254;62147;-86
2024/04/05 06:35:03;;;;;;;;;;;;;;;9.61;96.33;101180.58;106435;1258;62056;-84
2024/04/05 06:37:33;;;;;;;;;;;;;;;9.57;94.36;101182.77;106380;1254;74447;-85
2024/04/05 06:40:01;;;;;;;;;;;;;;;9.63;100.00;101186.81;106467;1254;69176;-84
2024/04/05 06:42:28;;;;;;;;;;;;;;;9.72;100.00;101184.46;106303;1260;70923;-85
2024/04/05 06:44:55;;;;;;;;;;;;;;;9.84;99.97;101187.17;106422;1255;62179;-86
2024/04/05 06:47:24;;;;;;;;;;;;;;;9.89;96.02;101189.52;106242;1253;62217;-85
2024/04/05 06:49:53;;;;;;;;;;;;;;;9.91;94.34;101187.02;106243;1260;73547;-85
2024/04/05 06:52:39;;;;;;;;;;;;;;;9.90;94.55;101191.77;106298;1255;69984;-86
2024/04/05 06:55:26;;;;;;;;;;;;;;;9.91;93.10;101186.09;106341;1254;71521;-86
2024/04/05 06:58:12;;;;;;;;;;;;;;;9.98;96.01;101189.59;106281;1257;62158;-85
2024/04/05 07:00:41;;;;;;;;;;;;;;;9.99;87.26;101190.98;106074;1260;62179;-87
2024/04/05 07:03:08;;;;;;;;;;;;;;;9.96;89.71;101191.16;106428;1256;77608;-87
2024/04/05 07:05:36;;;;;;;;;;;;;;;10.00;91.24;101187.71;106657;1259;67653;-85
2024/04/05 07:08:03;;;;;;;;;;;;;;;10.05;86.05;101194.59;106212;1254;71650;-84
2024/04/05 07:10:31;;;;;;;;;;;;;;;10.06;85.52;101193.02;106334;1258;62015;-85
2024/04/05 07:13:16;;;;;;;;;;;;;;;10.12;91.45;101187.56;106257;1259;61920;-86
2024/04/05 07:16:03;;;;;;;;;;;;;;;10.40;91.51;101186.27;106368;1254;76836;-86
2024/04/05 07:18:49;;;;;;;;;;;;;;;10.68;85.32;101187.91;106028;1257;72094;-86
2024/04/05 07:21:35;;;;;;;;;;;;;;;10.68;82.15;101187.36;106262;1254;73076;-84
2024/04/05 07:24:05;;;;;;;;;;;;;;;10.77;86.02;101188.25;106204;1254;62183;-85
2024/04/05 07:26:33;;;;;;;;;;;;;;;10.93;80.58;101192.07;107874;1254;59645;-84
2024/04/05 07:29:02;;;;;;;;;;;;;;;10.98;82.10;101190.95;106838;1254;77690;-84
2024/04/05 07:31:49;;;;;;;;;;;;;;;11.11;78.40;101189.21;106206;1257;67249;-84
2024/04/05 07:34:34;;;;;;;;;;;;;;;11.04;73.78;101195.14;106302;1257;70605;-84
2024/04/05 07:37:20;;;;;;;;;;;;;;;10.99;81.02;101191.63;106277;1254;62132;-84
2024/04/05 07:39:49;;;;;;;;;;;;;;;11.12;81.79;101193.83;106525;1260;61937;-85
2024/04/05 07:42:19;;;;;;;;;;;;;;;11.21;77.56;101189.83;106103;1254;73989;-84
2024/04/05 07:44:46;;;;;;;;;;;;;;;11.27;77.50;101187.27;106354;1254;67929;-84
2024/04/05 07:47:14;;;;;;;;;;;;;;;11.39;78.79;101194.73;106334;1259;74948;-84
2024/04/05 07:49:41;;;;;;;;;;;;;;;11.53;76.39;101188.93;106155;1254;62280;-84
2024/04/05 07:52:09;;;;;;;;;;;;;;;11.64;72.65;101189.02;106454;1256;62111;-84
2024/04/05 07:54:37;;;;;;;;;;;;;;;11.69;69.55;101188.56;108321;1254;75732;-85
2024/04/05 07:57:23;;;;;;;;;;;;;;;11.76;72.43;101187.75;106224;1254;68561;-85
2024/04/05 07:59:51;;;;;;;;;;;;;;;11.83;69.17;101184.71;106323;1254;73619;-85
2024/04/05 08:02:37;;;;;;;;;;;;;;;11.84;71.62;101179.40;106249;1254;62097;-85
2024/04/05 08:05:06;;;;;;;;;;;;;;;11.89;75.50;101180.77;106182;1260;62681;-84
2024/04/05 08:07:51;;;;;;;;;;;;;;;12.01;72.98;101182.37;106269;1254;75563;-86
2024/04/05 08:10:36;;;;;;;;;;;;;;;12.11;70.69;101178.83;106235;1254;67406;-84
2024/04/05 08:13:22;;;;;;;;;;;;;;;12.15;66.91;101179.27;106299;1253;73914;-85
2024/04/05 08:16:08;;;;;;;;;;;;;;;12.11;70.39;101180.30;107590;1256;62064;-85
2024/04/05 08:18:54;;;;;;;;;;;;;;;12.17;73.40;101172.75;106365;1254;62108;-84
2024/04/05 08:21:22;;;;;;;;;;;;;;;12.39;75.49;101165.52;106398;1254;77689;-87
2024/04/05 08:24:07;;;;;;;;;;;;;;;12.68;73.17;101166.23;106510;1257;67441;-85
2024/04/05 08:26:35;;;;;;;;;;;;;;;12.84;65.49;101167.25;106471;1253;74662;-85
2024/04/05 08:29:24;;;;;;;;;;;;;;;12.83;61.43;101166.70;106304;1257;61973;-85
2024/04/05 08:31:52;;;;;;;;;;;;;;;12.76;57.89;101164.40;106228;1253;62086;-84
2024/04/05 08:34:37;;;;;;;;;;;;;;;12.65;57.26;101162.66;106291;1254;76900;-84
2024/04/05 08:37:23;;;;;;;;;;;;;;;12.65;56.73;101161.57;106414;1254;68288;-88
2024/04/05 08:39:51;;;;;;;;;;;;;;;12.72;58.01;101162.33;106531;1257;74110;-87
2024/04/05 08:42:37;;;;;;;;;;;;;;;12.89;56.61;101151.87;106582;1255;62699;-84
2024/04/05 08:45:10;;;;;;;;;;;;;;;13.03;56.12;101155.08;106557;1253;61947;-88
2024/04/05 08:47:38;;;;;;;;;;;;;;;13.12;56.87;101151.37;106440;1252;75486;-86
2024/04/05 08:50:23;;;;;;;;;;;;;;;13.16;55.64;101151.97;106466;1254;69155;-84
2024/04/05 08:53:09;;;;;;;;;;;;;;;13.14;59.21;101149.34;107348;1251;71393;-85
2024/04/05 08:55:38;;;;;;;;;;;;;;;13.15;59.97;101147.41;106369;1254;61995;-87
2024/04/05 08:58:06;;;;;;;;;;;;;;;13.23;58.16;101145.56;106444;1254;62226;-87
2024/04/05 09:00:51;;;;;;;;;;;;;;;13.30;56.97;101141.84;106546;1254;74580;-84
2024/04/05 09:03:36;;;;;;;;;;;;;;;13.25;53.32;101141.18;106573;1254;68389;-84
2024/04/05 09:06:04;;;;;;;;;;;;;;;13.13;54.26;101139.19;106265;1254;72463;-84
2024/04/05 09:08:42;;;;;;;;;;;;;;;13.01;52.51;101137.09;106330;1257;62161;-84
2024/04/05 09:11:27;;;;;;;;;;;;;;;12.88;52.61;101139.15;106633;1252;61929;-85
2024/04/05 09:13:55;;;;;;;;;;;;;;;12.80;53.26;101138.23;106334;1255;74573;-85
2024/04/05 09:16:23;;;;;;;;;;;;;;;12.89;53.74;101138.27;106251;1254;68181;-85
2024/04/05 09:18:52;;;;;;;;;;;;;;;13.11;54.22;101138.92;106533;1259;74905;-86
2024/04/05 09:21:42;;;;;;;;;;;;;;;13.33;55.73;101135.79;106487;1253;60525;-85
2024/04/05 09:24:30;;;;;;;;;;;;;;;13.38;53.25;101136.48;106513;1256;62060;-84
2024/04/05 09:27:17;;;;;;;;;;;;;;;13.30;52.25;101132.30;107195;1256;74136;-84
2024/04/05 09:29:46;;;;;;;;;;;;;;;13.29;53.09;101130.98;106439;1254;70983;-86
2024/04/05 09:32:18;;;;;;;;;;;;;;;13.26;55.04;101126.80;106370;1257;70869;-86
2024/04/05 09:34:46;;;;;;;;;;;;;;;13.22;55.80;101125.71;106293;1260;62131;-86
2024/04/05 09:37:32;;;;;;;;;;;;;;;13.21;57.66;101125.23;106495;1254;61962;-88
2024/04/05 09:40:01;;;;;;;;;;;;;;;13.25;55.89;101122.46;106438;1254;76455;-85
2024/04/05 09:42:47;;;;;;;;;;;;;;;13.20;59.51;101115.77;106443;1252;67293;-86
2024/04/05 09:45:14;;;;;;;;;;;;;;;13.25;57.72;101107.92;106926;1252;74927;-87
2024/04/05 09:47:42;;;;;;;;;;;;;;;13.35;55.86;101105.70;107058;1254;62318;-85
2024/04/05 09:50:14;;;;;;;;;;;;;;;13.52;56.22;101099.29;106330;1254;61964;-87
2024/04/05 09:52:59;;;;;;;;;;;;;;;13.57;56.72;101098.06;106378;1257;75598;-86
2024/04/05 09:55:28;;;;;;;;;;;;;;;13.57;56.15;101099.98;106199;1254;70849;-86
2024/04/05 09:57:55;;;;;;;;;;;;;;;13.59;60.42;101099.14;106488;1254;74970;-86
2024/04/05 10:00:42;;;;;;;;;;;;;;;13.73;65.19;101099.77;106474;1254;62174;-85
2024/04/05 10:03:28;;;;;;;;;;;;;;;13.87;59.02;101098.27;106469;1253;62077;-84
2024/04/05 10:05:55;;;;;;;;;;;;;;;13.94;59.97;101097.54;106265;1254;76695;-86
2024/04/05 10:08:42;;;;;;;;;;;;;;;14.06;58.48;101094.66;106409;1254;67212;-84
2024/04/05 10:11:28;;;;;;;;;;;;;;;14.05;59.97;101092.85;106279;1254;73031;-83
2024/04/05 10:14:02;;;;;;;;;;;;;;;14.05;60.95;101092.34;106412;1253;62090;-85
2024/04/05 10:16:31;;;;;;;;;;;;;;;14.03;56.04;101096.60;106360;1257;62186;-85
2024/04/05 10:19:08;;;;;;;;;;;;;;;13.90;52.98;101099.44;106346;1254;76806;-86
2024/04/05 10:21:36;;;;;;;;;;;;;;;13.74;55.14;101105.88;106250;1254;71024;-85
2024/04/05 10:24:22;;;;;;;;;;;;;;;13.75;59.62;101107.84;106569;1254;73570;-87
2024/04/05 10:26:50;;;;;;;;;;;;;;;13.88;59.14;101104.40;106452;1270;62066;-86
2024/04/05 10:29:18;;;;;;;;;;;;;;;13.94;55.28;101102.48;107865;1254;62143;-86
2024/04/05 10:31:46;;;;;;;;;;;;;;;13.92;52.96;101107.45;107713;1253;76892;-87
2024/04/05 10:34:22;;;;;;;;;;;;;;;13.90;52.75;101114.61;106431;1254;69800;-85
2024/04/05 10:37:13;;;;;;;;;;;;;;;13.93;50.91;101115.29;106561;1254;71731;-87
2024/04/05 10:40:03;;;;;;;;;;;;;;;13.95;49.83;101112.81;106732;1256;61971;-85
2024/04/05 10:42:49;;;;;;;;;;;;;;;14.04;51.41;101111.37;106444;1253;63006;-88
2024/04/05 10:45:35;;;;;;;;;;;;;;;14.23;52.61;101110.51;106688;1253;76842;-85
2024/04/05 10:48:04;;;;;;;;;;;;;;;14.41;50.13;101112.66;106565;1253;68923;-85
2024/04/05 10:50:50;;;;;;;;;;;;;;;14.42;51.21;101112.11;106310;1254;74052;-84
2024/04/05 10:53:20;;;;;;;;;;;;;;;14.46;50.16;101110.85;106269;1255;60932;-87
2024/04/05 10:56:05;;;;;;;;;;;;;;;14.58;49.76;101114.57;106524;1253;62150;-87
2024/04/05 10:58:35;;;;;;;;;;;;;;;14.68;49.30;101113.70;106362;1257;75582;-87
2024/04/05 11:01:21;;;;;;;;;;;;;;;14.81;47.38;101112.55;106266;1253;69860;-84
2024/04/05 11:03:49;;;;;;;;;;;;;;;14.82;46.13;101111.88;106503;1256;71924;-85
2024/04/05 11:06:34;;;;;;;;;;;;;;;14.86;47.32;101113.23;106558;1256;62123;-87
2024/04/05 11:09:02;;;;;;;;;;;;;;;14.89;46.09;101116.29;106314;1254;62088;-86
2024/04/05 11:11:29;;;;;;;;;;;;;;;14.91;47.10;101113.06;106618;1253;77689;-87
2024/04/05 11:14:03;;;;;;;;;;;;;;;14.91;46.88;101110.65;106415;1254;68857;-87
2024/04/05 11:16:32;;;;;;;;;;;;;;;14.91;46.77;101103.77;106548;1257;74635;-85
2024/04/05 11:19:24;;;;;;;;;;;;;;;14.92;48.17;101105.73;106284;1261;61953;-87
2024/04/05 11:21:53;;;;;;;;;;;;;;;14.87;48.18;101105.63;106483;1254;60639;-83
2024/04/05 11:24:46;;;;;;;;;;;;;;;14.83;49.35;101102.30;106584;1253;75684;-87
2024/04/05 11:27:32;;;;;;;;;;;;;;;14.83;48.28;101099.56;106387;1253;68519;-85
2024/04/05 11:30:18;;;;;;;;;;;;;;;14.80;46.70;101097.23;106314;1254;73006;-85
2024/04/05 11:32:46;;;;;;;;;;;;;;;14.83;46.88;101095.42;106423;1257;62178;-84
2024/04/05 11:35:14;;;;;;;;;;;;;;;14.93;45.89;101092.23;106889;1253;62389;-85
2024/04/05 11:38:00;;;;;;;;;;;;;;;15.19;45.08;101092.69;106381;1254;78663;-87
2024/04/05 11:40:46;;;;;;;;;;;;;;;15.45;43.72;101090.64;106580;1253;67619;-83
2024/04/05 11:43:14;;;;;;;;;;;;;;;15.60;43.66;101086.85;107943;1257;74881;-84
2024/04/05 11:45:59;;;;;;;;;;;;;;;15.84;43.68;101082.17;108657;1253;60686;-86
2024/04/05 11:48:27;;;;;;;;;;;;;;;16.09;43.76;101077.53;107041;1257;62121;-84
2024/04/05 11:50:55;;;;;;;;;;;;;;;16.21;43.83;101073.85;106945;1253;77666;-87
2024/04/05 11:53:41;;;;;;;;;;;;;;;16.27;43.29;101073.97;106701;1254;70463;-88
2024/04/05 11:56:09;;;;;;;;;;;;;;;16.26;39.87;101070.02;108002;1252;73040;-85
2024/04/05 11:58:37;;;;;;;;;;;;;;;16.19;41.05;101069.52;106395;1259;62082;-84
2024/04/05 12:01:04;;;;;;;;;;;;;;;16.34;42.56;101069.48;106612;1253;62178;-87
2024/04/05 12:03:50;;;;;;;;;;;;;;;16.57;39.64;101067.42;106595;1256;75335;-85
2024/04/05 12:06:35;;;;;;;;;;;;;;;16.84;39.81;101065.97;106208;1254;69756;-85
2024/04/05 12:09:21;;;;;;;;;;;;;;;17.07;40.30;101059.05;106230;1253;72290;-85
2024/04/05 12:12:07;;;;;;;;;;;;;;;17.16;39.67;101052.45;106390;1253;62122;-85
2024/04/05 12:14:35;;;;;;;;;;;;;;;17.26;40.54;101047.73;106200;1252;62037;-85
2024/04/05 12:17:03;;;;;;;;;;;;;;;17.37;41.28;101046.42;106277;1256;75809;-88
2024/04/05 12:19:30;;;;;;;;;;;;;;;17.44;40.67;101043.29;106353;1253;69863;-85
2024/04/05 12:22:16;;;;;;;;;;;;;;;17.46;40.08;101048.09;106553;1253;73939;-85
2024/04/05 12:24:48;;;;;;;;;;;;;;;17.56;39.59;101045.05;106474;1254;62194;-88
2024/04/05 12:27:34;;;;;;;;;;;;;;;17.73;37.81;101048.73;107030;1253;62068;-85
2024/04/05 12:30:02;;;;;;;;;;;;;;;17.86;36.90;101041.61;106617;1253;74650;-84
2024/04/05 12:32:30;;;;;;;;;;;;;;;17.83;35.19;101042.50;106150;1254;70790;-88
2024/04/05 12:35:16;;;;;;;;;;;;;;;17.77;34.67;101039.80;106534;1254;72971;-85
2024/04/05 12:38:01;;;;;;;;;;;;;;;17.65;34.95;101038.85;106243;1253;62104;-86
2024/04/05 12:40:52;;;;;;;;;;;;;;;17.51;34.57;101035.55;106470;1254;62027;-85
2024/04/05 12:43:20;;;;;;;;;;;;;;;17.52;36.98;101032.20;106345;1253;75310;-85
2024/04/05 12:46:06;;;;;;;;;;;;;;;17.32;36.31;101037.69;108475;1252;67321;-88
2024/04/05 12:48:51;;;;;;;;;;;;;;;16.97;35.11;101039.90;107072;1253;71169;-88